Fjordprinsessen — LJVE — position and weather

sailwx.info

Track history (hours):
 
Tides and Currents Weather Stations Pressure Air Temp Water Temp Dewpoint Dewpoint Depression Visibility Wind Speed Wind Dir Waves Ship Positions

Fjordprinsessen

Last reported at 2016-Jun-20 08:34 UTC. Time now 2016-Jun-25 12:31 UTC.
Position N 67°29' E 014°36'.

Length 30 m; draft 2.5 m.

Type: High speed craft. MMSI: 259604000.

Date/timePositionNaut miles runAvg speedWind from/ knotsBaromVisibWave heightAir tempDewpointWater temp
2016-Jun-20 08:34N 67°29' E 014°36'1312.4
2016-Jun-20 07:32N 67°17' E 014°22'0 0.0
2016-Jun-20 06:32N 67°17' E 014°22'0 0.0
2016-Jun-20 05:32N 67°17' E 014°22'1212.6
2016-Jun-20 04:33N 67°07' E 014°03'1212.3
2016-Jun-20 03:33N 67°17' E 014°22'0 0.1
2016-Jun-20 02:32N 67°17' E 014°22'0 0.0
2016-Jun-20 01:32N 67°17' E 014°22'0 0.0
2016-Jun-20 00:32N 67°17' E 014°22'0 0.0
2016-Jun-19 23:32N 67°17' E 014°22'0 0.0
2016-Jun-19 22:32N 67°17' E 014°22'0 0.0
2016-Jun-19 21:32N 67°17' E 014°22'0 0.0
2016-Jun-19 20:32N 67°17' E 014°22'2 2.3
2016-Jun-19 19:33N 67°16' E 014°18'1413.7
2016-Jun-19 18:33N 67°10' E 013°46'1615.9
2016-Jun-19 17:33N 67°17' E 014°22'7 7.3
2016-Jun-19 16:34N 67°23' E 014°10'10 9.8
2016-Jun-19 15:33N 67°18' E 013°47'1414.0
2016-Jun-19 14:34N 67°18' E 014°23'14 6.9
2016-Jun-19 12:33N 67°31' E 014°38'1514.9
2016-Jun-19 11:32N 67°17' E 014°22'0 0.0
2016-Jun-19 10:32N 67°17' E 014°22'0 0.0
2016-Jun-19 09:32N 67°17' E 014°22'0 0.0
2016-Jun-19 08:32N 67°17' E 014°22'0 0.0
2016-Jun-19 07:32N 67°17' E 014°22'0 0.0
2016-Jun-19 06:31N 67°17' E 014°22'0 0.0
2016-Jun-19 05:31N 67°17' E 014°22'0 0.0
2016-Jun-19 04:31N 67°17' E 014°22'0 0.0
2016-Jun-19 03:31N 67°17' E 014°22'0 0.0
2016-Jun-19 02:31N 67°17' E 014°22'0 0.0
2016-Jun-19 01:31N 67°17' E 014°22'0 0.0
2016-Jun-19 00:31N 67°17' E 014°22'0 0.0
2016-Jun-18 23:31N 67°17' E 014°22'0 0.0
2016-Jun-18 22:31N 67°17' E 014°22'0 0.0
2016-Jun-18 21:31N 67°17' E 014°22'0 0.0
2016-Jun-18 20:31N 67°17' E 014°22'0 0.0
2016-Jun-18 19:31N 67°17' E 014°22'0 0.0
2016-Jun-18 18:31N 67°17' E 014°22'0 0.0
2016-Jun-18 17:31N 67°17' E 014°22'0 0.0
2016-Jun-18 16:31N 67°17' E 014°22'1313.3
2016-Jun-18 15:33N 67°25' E 013°56'1312.8
2016-Jun-18 14:33N 67°17' E 014°22'1515.3
2016-Jun-18 13:33N 67°10' E 013°47'1111.1
2016-Jun-18 12:34N 67°14' E 014°13'5 4.6
2016-Jun-18 11:33N 67°17' E 014°22'0 0.0
2016-Jun-18 10:32N 67°17' E 014°22'0 0.0
2016-Jun-18 09:34N 67°17' E 014°22'1412.6
2016-Jun-18 08:29N 67°23' E 013°51'1011.1
2016-Jun-18 07:34N 67°17' E 014°12'1010.0
2016-Jun-18 06:34N 67°08' E 013°58'1111.3
2016-Jun-18 05:34N 67°16' E 014°18'2 1.8
2016-Jun-18 04:30N 67°17' E 014°22'0 0.0
2016-Jun-18 03:33N 67°17' E 014°22'0 0.0
2016-Jun-18 02:33N 67°17' E 014°22'0 0.0
2016-Jun-18 01:32N 67°17' E 014°22'0 0.0
2016-Jun-18 00:32N 67°17' E 014°22'0 0.0
2016-Jun-17 23:32N 67°17' E 014°22'0 0.0
2016-Jun-17 22:32N 67°17' E 014°22'0 0.0
2016-Jun-17 21:32N 67°17' E 014°22'0 0.0
2016-Jun-17 20:32N 67°17' E 014°22'0 0.0
2016-Jun-17 19:32N 67°17' E 014°22'0 0.0
2016-Jun-17 18:32N 67°17' E 014°22'0 0.0
2016-Jun-17 17:32N 67°17' E 014°22'2 1.7
2016-Jun-17 16:34N 67°19' E 014°21'1413.9
2016-Jun-17 15:33N 67°19' E 013°44'1212.0
2016-Jun-17 14:34N 67°24' E 014°12'8 8.0
2016-Jun-17 13:34N 67°17' E 014°22'1514.8
2016-Jun-17 12:32N 67°18' E 013°43'1312.9
2016-Jun-17 11:34N 67°24' E 014°13'8 7.7
2016-Jun-17 10:33N 67°17' E 014°22'0 0.0
2016-Jun-17 09:33N 67°17' E 014°22'0 0.0
2016-Jun-17 08:33N 67°17' E 014°22'0 0.0
2016-Jun-17 07:33N 67°17' E 014°22'0 0.0
2016-Jun-17 06:33N 67°17' E 014°22'0 0.0
2016-Jun-17 05:31N 67°17' E 014°22'1212.8
2016-Jun-17 04:34N 67°07' E 014°03'1212.3
2016-Jun-17 03:33N 67°17' E 014°22'0 0.0
2016-Jun-17 02:32N 67°17' E 014°22'0 0.0
2016-Jun-17 01:32N 67°17' E 014°22'0 0.0
2016-Jun-17 00:32N 67°17' E 014°22'0 0.0
2016-Jun-16 23:32N 67°17' E 014°22'0 0.0
2016-Jun-16 22:32N 67°17' E 014°22'0 0.0
2016-Jun-16 21:32N 67°17' E 014°22'0 0.0
2016-Jun-16 20:32N 67°17' E 014°22'1110.7
2016-Jun-16 19:32N 67°15' E 013°55'8 8.6
2016-Jun-16 18:33N 67°07' E 014°03'1212.3
2016-Jun-16 17:33N 67°17' E 014°22'0 0.0
2016-Jun-16 16:33N 67°17' E 014°22'5 4.5
2016-Jun-16 15:34N 67°21' E 014°16'5 5.0
2016-Jun-16 14:34N 67°25' E 014°07'9 9.5
2016-Jun-16 13:34N 67°17' E 014°22'1414.5
2016-Jun-16 12:34N 67°19' E 013°45'1211.3
2016-Jun-16 11:29N 67°23' E 014°15'7 7.5
2016-Jun-16 10:33N 67°17' E 014°24'1312.9
2016-Jun-16 09:33N 67°13' E 013°52'6 6.6
2016-Jun-16 08:33N 67°08' E 014°02'1211.3
2016-Jun-16 07:32N 67°17' E 014°22'0 0.0
2016-Jun-16 06:32N 67°17' E 014°22'0 0.0
2016-Jun-16 05:31N 67°17' E 014°22'1211.9
2016-Jun-16 04:29N 67°07' E 014°03'1212.8
2016-Jun-16 03:31N 67°17' E 014°22'0 0.0
2016-Jun-16 02:31N 67°17' E 014°22'0 0.0
2016-Jun-16 01:31N 67°17' E 014°22'0 0.0
2016-Jun-16 00:31N 67°17' E 014°22'0 0.0
2016-Jun-15 23:31N 67°17' E 014°22'0 0.0
2016-Jun-15 22:31N 67°17' E 014°22'0 0.0
2016-Jun-15 21:31N 67°17' E 014°22'0 0.0
2016-Jun-15 20:31N 67°17' E 014°22'1010.1
2016-Jun-15 19:34N 67°13' E 013°60'6 5.8
2016-Jun-15 18:33N 67°07' E 014°03'1212.3
2016-Jun-15 17:33N 67°17' E 014°22'0 0.0
2016-Jun-15 16:33N 67°17' E 014°22'1313.4
2016-Jun-15 15:33N 67°12' E 013°50'7 6.8
2016-Jun-15 14:34N 67°07' E 014°03'1312.5
2016-Jun-15 13:33N 67°17' E 014°23'0 0.4
2016-Jun-15 12:31N 67°17' E 014°22'0 0.0
2016-Jun-15 11:31N 67°17' E 014°22'0 0.0
2016-Jun-15 10:31N 67°17' E 014°22'0 0.0
2016-Jun-15 09:31N 67°17' E 014°22'0 0.0
2016-Jun-15 08:34N 67°17' E 014°22'0 0.0
2016-Jun-15 07:33N 67°17' E 014°22'0 0.0
2016-Jun-15 06:32N 67°17' E 014°22'0 0.0
2016-Jun-15 05:32N 67°17' E 014°22'1212.4
2016-Jun-15 04:32N 67°07' E 014°03'1212.5
2016-Jun-15 03:33N 67°17' E 014°22'0 0.0
2016-Jun-15 02:29N 67°17' E 014°22'0 0.0
2016-Jun-15 01:29N 67°17' E 014°22'0 0.0
2016-Jun-15 00:29N 67°17' E 014°22'0 0.0
2016-Jun-14 23:29N 67°17' E 014°22'0 0.0
2016-Jun-14 22:32N 67°17' E 014°22'0 0.0
2016-Jun-14 21:32N 67°17' E 014°22'0 0.0
2016-Jun-14 20:29N 67°17' E 014°22'0 0.0
2016-Jun-14 19:32N 67°17' E 014°22'0 0.0
2016-Jun-14 18:31N 67°17' E 014°22'0 0.0
2016-Jun-14 17:31N 67°17' E 014°22'0 0.0
2016-Jun-14 16:33N 67°17' E 014°22'1411.3
2016-Jun-14 15:21N 67°22' E 013°50'1011.9
2016-Jun-14 14:33N 67°23' E 014°15'7 6.9
2016-Jun-14 13:33N 67°17' E 014°23'0 0.4
2016-Jun-14 12:34N 67°17' E 014°22'0 0.0
2016-Jun-14 11:33N 67°17' E 014°22'0 0.0
2016-Jun-14 10:34N 67°17' E 014°22'0 0.0
2016-Jun-14 09:33N 67°17' E 014°22'0 0.0
2016-Jun-14 08:33N 67°17' E 014°22'2 2.3
2016-Jun-14 07:34N 67°19' E 014°20'5 2.4
2016-Jun-14 05:33N 67°23' E 014°15'1716.6
2016-Jun-14 04:33N 67°07' E 014°03'1212.3
2016-Jun-14 03:33N 67°17' E 014°22'0 0.0
2016-Jun-14 02:31N 67°17' E 014°22'0 0.0
2016-Jun-14 01:33N 67°17' E 014°22'0 0.0
2016-Jun-14 00:33N 67°17' E 014°22'0 0.0
2016-Jun-13 23:33N 67°17' E 014°22'0 0.0
2016-Jun-13 22:33N 67°17' E 014°22'0 0.0
2016-Jun-13 21:33N 67°17' E 014°22'0 0.0
2016-Jun-13 20:34N 67°17' E 014°22'0 0.0
2016-Jun-13 19:33N 67°17' E 014°22'0 0.0
2016-Jun-13 18:33N 67°17' E 014°22'0 0.0
2016-Jun-13 17:33N 67°17' E 014°22'0 0.0
2016-Jun-13 16:33N 67°17' E 014°22'1210.7
2016-Jun-13 15:27N 67°14' E 013°53'8 8.3
2016-Jun-13 14:33N 67°07' E 014°03'1212.4
2016-Jun-13 13:34N 67°17' E 014°22'0 0.0
2016-Jun-13 12:33N 67°17' E 014°22'0 0.0
2016-Jun-13 11:33N 67°17' E 014°22'0 0.0
2016-Jun-13 10:33N 67°17' E 014°22'1312.5
2016-Jun-13 09:32N 67°13' E 013°51'6 5.9
2016-Jun-13 08:33N 67°09' E 014°02'1111.3
2016-Jun-13 07:32N 67°17' E 014°22'0 0.0
2016-Jun-13 06:29N 67°17' E 014°22'0 0.0
2016-Jun-13 05:32N 67°17' E 014°22'1212.4
2016-Jun-13 04:33N 67°07' E 014°03'1212.5
2016-Jun-13 03:33N 67°17' E 014°22'0 0.0
2016-Jun-13 02:29N 67°17' E 014°22'0 0.0
2016-Jun-13 01:29N 67°17' E 014°22'0 0.0
2016-Jun-13 00:29N 67°17' E 014°22'0 0.0
2016-Jun-12 23:31N 67°17' E 014°22'0 0.0
2016-Jun-12 22:31N 67°17' E 014°22'0 0.0
2016-Jun-12 21:28N 67°17' E 014°22'0 0.0
2016-Jun-12 20:31N 67°17' E 014°22'0 0.0
2016-Jun-12 19:34N 67°17' E 014°22'1414.2
2016-Jun-12 18:33N 67°10' E 013°50'1414.3
2016-Jun-12 17:34N 67°17' E 014°22'10 9.8
2016-Jun-12 16:33N 67°25' E 014°06'1110.6
2016-Jun-12 15:33N 67°15' E 013°54'1111.2
2016-Jun-12 14:34N 67°17' E 014°22'2417.2
2016-Jun-12 13:09N 67°40' E 014°43'1627.2
2016-Jun-12 12:33N 67°25' E 014°32'9 8.3
2016-Jun-12 11:31N 67°17' E 014°22'0 0.0
2016-Jun-12 10:31N 67°17' E 014°22'0 0.0
2016-Jun-12 09:31N 67°17' E 014°22'0 0.0
2016-Jun-12 08:31N 67°17' E 014°22'0 0.0
2016-Jun-12 07:31N 67°17' E 014°22'0 0.0
2016-Jun-12 06:31N 67°17' E 014°22'0 0.0
2016-Jun-12 04:33N 67°17' E 014°22'0 0.0
2016-Jun-12 03:33N 67°17' E 014°22'0 0.0
2016-Jun-12 02:33N 67°17' E 014°22'0 0.0
2016-Jun-12 01:33N 67°17' E 014°22'0 0.0
2016-Jun-12 00:33N 67°17' E 014°22'0 0.0
2016-Jun-11 23:33N 67°17' E 014°22'0 0.0
2016-Jun-11 22:33N 67°17' E 014°22'0 0.0
2016-Jun-11 21:33N 67°17' E 014°22'0 0.0
2016-Jun-11 20:33N 67°17' E 014°22'0 0.0
2016-Jun-11 19:33N 67°17' E 014°22'0 0.0
2016-Jun-11 19:00N 67°17' E 014°22'0 0.0
2016-Jun-11 18:30N 67°17' E 014°22'0 0.0
2016-Jun-11 17:33N 67°17' E 014°22'0 0.0
2016-Jun-11 16:33N 67°17' E 014°22'0 0.2
2016-Jun-11 14:34N 67°17' E 014°22'1515.2
2016-Jun-11 13:33N 67°10' E 013°47'1110.9
2016-Jun-11 12:33N 67°14' E 014°13'5 4.8
2016-Jun-11 11:33N 67°17' E 014°22'0 0.0
2016-Jun-11 10:30N 67°17' E 014°22'0 0.0
2016-Jun-11 09:33N 67°17' E 014°22'1312.8
2016-Jun-11 08:32N 67°24' E 013°54'9 9.6
2016-Jun-11 07:34N 67°17' E 014°08'9 9.5
2016-Jun-11 06:33N 67°08' E 013°58'1211.7
2016-Jun-11 05:33N 67°17' E 014°19'1 1.4
2016-Jun-11 04:31N 67°17' E 014°22'0 0.0
2016-Jun-11 03:31N 67°17' E 014°22'0 0.0
2016-Jun-11 02:31N 67°17' E 014°22'0 0.0
2016-Jun-11 01:31N 67°17' E 014°22'0 0.0
2016-Jun-11 00:31N 67°17' E 014°22'0 0.0
2016-Jun-10 23:31N 67°17' E 014°22'0 0.0
2016-Jun-10 22:31N 67°17' E 014°22'0 0.0
2016-Jun-10 21:31N 67°17' E 014°22'0 0.0
2016-Jun-10 20:31N 67°17' E 014°22'0 0.0
2016-Jun-10 19:31N 67°17' E 014°22'0 0.0
2016-Jun-10 18:31N 67°17' E 014°22'0 0.0
2016-Jun-10 17:31N 67°17' E 014°22'0 0.0
2016-Jun-10 16:31N 67°17' E 014°22'1111.1
2016-Jun-10 15:33N 67°20' E 013°56'6 5.7
2016-Jun-10 14:34N 67°25' E 014°03'1110.9
2016-Jun-10 13:33N 67°17' E 014°22'7 6.8
2016-Jun-10 12:34N 67°23' E 014°13'3 2.7
2016-Jun-10 11:33N 67°25' E 014°08'9 9.4
2016-Jun-10 10:33N 67°17' E 014°22'0 0.0
2016-Jun-10 09:33N 67°17' E 014°22'  
Track history (hours):
 
Tides and Currents Weather Stations Pressure Air Temp Water Temp Dewpoint Dewpoint Depression Visibility Wind Speed Wind Dir Waves Ship Positions

Fjordprinsessen

Last reported at 2016-Jun-20 08:34 UTC. Time now 2016-Jun-25 12:31 UTC.
Position N 67°29' E 014°36'.

Length 30 m; draft 2.5 m.

Type: High speed craft. MMSI: 259604000.

Date/timePositionNaut miles runAvg speedWind from/ knotsBaromVisibWave heightAir tempDewpointWater temp
2016-Jun-20 08:34N 67°29' E 014°36'1312.4
2016-Jun-20 07:32N 67°17' E 014°22'0 0.0
2016-Jun-20 06:32N 67°17' E 014°22'0 0.0
2016-Jun-20 05:32N 67°17' E 014°22'1212.6
2016-Jun-20 04:33N 67°07' E 014°03'1212.3
2016-Jun-20 03:33N 67°17' E 014°22'0 0.1
2016-Jun-20 02:32N 67°17' E 014°22'0 0.0
2016-Jun-20 01:32N 67°17' E 014°22'0 0.0
2016-Jun-20 00:32N 67°17' E 014°22'0 0.0
2016-Jun-19 23:32N 67°17' E 014°22'0 0.0
2016-Jun-19 22:32N 67°17' E 014°22'0 0.0
2016-Jun-19 21:32N 67°17' E 014°22'0 0.0
2016-Jun-19 20:32N 67°17' E 014°22'2 2.3
2016-Jun-19 19:33N 67°16' E 014°18'1413.7
2016-Jun-19 18:33N 67°10' E 013°46'1615.9
2016-Jun-19 17:33N 67°17' E 014°22'7 7.3
2016-Jun-19 16:34N 67°23' E 014°10'10 9.8
2016-Jun-19 15:33N 67°18' E 013°47'1414.0
2016-Jun-19 14:34N 67°18' E 014°23'14 6.9
2016-Jun-19 12:33N 67°31' E 014°38'1514.9
2016-Jun-19 11:32N 67°17' E 014°22'0 0.0
2016-Jun-19 10:32N 67°17' E 014°22'0 0.0
2016-Jun-19 09:32N 67°17' E 014°22'0 0.0
2016-Jun-19 08:32N 67°17' E 014°22'0 0.0
2016-Jun-19 07:32N 67°17' E 014°22'0 0.0
2016-Jun-19 06:31N 67°17' E 014°22'0 0.0
2016-Jun-19 05:31N 67°17' E 014°22'0 0.0
2016-Jun-19 04:31N 67°17' E 014°22'0 0.0
2016-Jun-19 03:31N 67°17' E 014°22'0 0.0
2016-Jun-19 02:31N 67°17' E 014°22'0 0.0
2016-Jun-19 01:31N 67°17' E 014°22'0 0.0
2016-Jun-19 00:31N 67°17' E 014°22'0 0.0
2016-Jun-18 23:31N 67°17' E 014°22'0 0.0
2016-Jun-18 22:31N 67°17' E 014°22'0 0.0
2016-Jun-18 21:31N 67°17' E 014°22'0 0.0
2016-Jun-18 20:31N 67°17' E 014°22'0 0.0
2016-Jun-18 19:31N 67°17' E 014°22'0 0.0
2016-Jun-18 18:31N 67°17' E 014°22'0 0.0
2016-Jun-18 17:31N 67°17' E 014°22'0 0.0
2016-Jun-18 16:31N 67°17' E 014°22'1313.3
2016-Jun-18 15:33N 67°25' E 013°56'1312.8
2016-Jun-18 14:33N 67°17' E 014°22'1515.3
2016-Jun-18 13:33N 67°10' E 013°47'1111.1
2016-Jun-18 12:34N 67°14' E 014°13'5 4.6
2016-Jun-18 11:33N 67°17' E 014°22'0 0.0
2016-Jun-18 10:32N 67°17' E 014°22'0 0.0
2016-Jun-18 09:34N 67°17' E 014°22'1412.6
2016-Jun-18 08:29N 67°23' E 013°51'1011.1
2016-Jun-18 07:34N 67°17' E 014°12'1010.0
2016-Jun-18 06:34N 67°08' E 013°58'1111.3
2016-Jun-18 05:34N 67°16' E 014°18'2 1.8
2016-Jun-18 04:30N 67°17' E 014°22'0 0.0
2016-Jun-18 03:33N 67°17' E 014°22'0 0.0
2016-Jun-18 02:33N 67°17' E 014°22'0 0.0
2016-Jun-18 01:32N 67°17' E 014°22'0 0.0
2016-Jun-18 00:32N 67°17' E 014°22'0 0.0
2016-Jun-17 23:32N 67°17' E 014°22'0 0.0
2016-Jun-17 22:32N 67°17' E 014°22'0 0.0
2016-Jun-17 21:32N 67°17' E 014°22'0 0.0
2016-Jun-17 20:32N 67°17' E 014°22'0 0.0
2016-Jun-17 19:32N 67°17' E 014°22'0 0.0
2016-Jun-17 18:32N 67°17' E 014°22'0 0.0
2016-Jun-17 17:32N 67°17' E 014°22'2 1.7
2016-Jun-17 16:34N 67°19' E 014°21'1413.9
2016-Jun-17 15:33N 67°19' E 013°44'1212.0
2016-Jun-17 14:34N 67°24' E 014°12'8 8.0
2016-Jun-17 13:34N 67°17' E 014°22'1514.8
2016-Jun-17 12:32N 67°18' E 013°43'1312.9
2016-Jun-17 11:34N 67°24' E 014°13'8 7.7
2016-Jun-17 10:33N 67°17' E 014°22'0 0.0
2016-Jun-17 09:33N 67°17' E 014°22'0 0.0
2016-Jun-17 08:33N 67°17' E 014°22'0 0.0
2016-Jun-17 07:33N 67°17' E 014°22'0 0.0
2016-Jun-17 06:33N 67°17' E 014°22'0 0.0
2016-Jun-17 05:31N 67°17' E 014°22'1212.8
2016-Jun-17 04:34N 67°07' E 014°03'1212.3
2016-Jun-17 03:33N 67°17' E 014°22'0 0.0
2016-Jun-17 02:32N 67°17' E 014°22'0 0.0
2016-Jun-17 01:32N 67°17' E 014°22'0 0.0
2016-Jun-17 00:32N 67°17' E 014°22'0 0.0
2016-Jun-16 23:32N 67°17' E 014°22'0 0.0
2016-Jun-16 22:32N 67°17' E 014°22'0 0.0
2016-Jun-16 21:32N 67°17' E 014°22'0 0.0
2016-Jun-16 20:32N 67°17' E 014°22'1110.7
2016-Jun-16 19:32N 67°15' E 013°55'8 8.6
2016-Jun-16 18:33N 67°07' E 014°03'1212.3
2016-Jun-16 17:33N 67°17' E 014°22'0 0.0
2016-Jun-16 16:33N 67°17' E 014°22'5 4.5
2016-Jun-16 15:34N 67°21' E 014°16'5 5.0
2016-Jun-16 14:34N 67°25' E 014°07'9 9.5
2016-Jun-16 13:34N 67°17' E 014°22'1414.5
2016-Jun-16 12:34N 67°19' E 013°45'1211.3
2016-Jun-16 11:29N 67°23' E 014°15'7 7.5
2016-Jun-16 10:33N 67°17' E 014°24'1312.9
2016-Jun-16 09:33N 67°13' E 013°52'6 6.6
2016-Jun-16 08:33N 67°08' E 014°02'1211.3
2016-Jun-16 07:32N 67°17' E 014°22'0 0.0
2016-Jun-16 06:32N 67°17' E 014°22'0 0.0
2016-Jun-16 05:31N 67°17' E 014°22'1211.9
2016-Jun-16 04:29N 67°07' E 014°03'1212.8
2016-Jun-16 03:31N 67°17' E 014°22'0 0.0
2016-Jun-16 02:31N 67°17' E 014°22'0 0.0
2016-Jun-16 01:31N 67°17' E 014°22'0 0.0
2016-Jun-16 00:31N 67°17' E 014°22'0 0.0
2016-Jun-15 23:31N 67°17' E 014°22'0 0.0
2016-Jun-15 22:31N 67°17' E 014°22'0 0.0
2016-Jun-15 21:31N 67°17' E 014°22'0 0.0
2016-Jun-15 20:31N 67°17' E 014°22'1010.1
2016-Jun-15 19:34N 67°13' E 013°60'6 5.8
2016-Jun-15 18:33N 67°07' E 014°03'1212.3
2016-Jun-15 17:33N 67°17' E 014°22'0 0.0
2016-Jun-15 16:33N 67°17' E 014°22'1313.4
2016-Jun-15 15:33N 67°12' E 013°50'7 6.8
2016-Jun-15 14:34N 67°07' E 014°03'1312.5
2016-Jun-15 13:33N 67°17' E 014°23'0 0.4
2016-Jun-15 12:31N 67°17' E 014°22'0 0.0
2016-Jun-15 11:31N 67°17' E 014°22'0 0.0
2016-Jun-15 10:31N 67°17' E 014°22'0 0.0
2016-Jun-15 09:31N 67°17' E 014°22'0 0.0
2016-Jun-15 08:34N 67°17' E 014°22'0 0.0
2016-Jun-15 07:33N 67°17' E 014°22'0 0.0
2016-Jun-15 06:32N 67°17' E 014°22'0 0.0
2016-Jun-15 05:32N 67°17' E 014°22'1212.4
2016-Jun-15 04:32N 67°07' E 014°03'1212.5
2016-Jun-15 03:33N 67°17' E 014°22'0 0.0
2016-Jun-15 02:29N 67°17' E 014°22'0 0.0
2016-Jun-15 01:29N 67°17' E 014°22'0 0.0
2016-Jun-15 00:29N 67°17' E 014°22'0 0.0
2016-Jun-14 23:29N 67°17' E 014°22'0 0.0
2016-Jun-14 22:32N 67°17' E 014°22'0 0.0
2016-Jun-14 21:32N 67°17' E 014°22'0 0.0
2016-Jun-14 20:29N 67°17' E 014°22'0 0.0
2016-Jun-14 19:32N 67°17' E 014°22'0 0.0
2016-Jun-14 18:31N 67°17' E 014°22'0 0.0
2016-Jun-14 17:31N 67°17' E 014°22'0 0.0
2016-Jun-14 16:33N 67°17' E 014°22'1411.3
2016-Jun-14 15:21N 67°22' E 013°50'1011.9
2016-Jun-14 14:33N 67°23' E 014°15'7 6.9
2016-Jun-14 13:33N 67°17' E 014°23'0 0.4
2016-Jun-14 12:34N 67°17' E 014°22'0 0.0
2016-Jun-14 11:33N 67°17' E 014°22'0 0.0
2016-Jun-14 10:34N 67°17' E 014°22'0 0.0
2016-Jun-14 09:33N 67°17' E 014°22'0 0.0
2016-Jun-14 08:33N 67°17' E 014°22'2 2.3
2016-Jun-14 07:34N 67°19' E 014°20'5 2.4
2016-Jun-14 05:33N 67°23' E 014°15'1716.6
2016-Jun-14 04:33N 67°07' E 014°03'1212.3
2016-Jun-14 03:33N 67°17' E 014°22'0 0.0
2016-Jun-14 02:31N 67°17' E 014°22'0 0.0
2016-Jun-14 01:33N 67°17' E 014°22'0 0.0
2016-Jun-14 00:33N 67°17' E 014°22'0 0.0
2016-Jun-13 23:33N 67°17' E 014°22'0 0.0
2016-Jun-13 22:33N 67°17' E 014°22'0 0.0
2016-Jun-13 21:33N 67°17' E 014°22'0 0.0
2016-Jun-13 20:34N 67°17' E 014°22'0 0.0
2016-Jun-13 19:33N 67°17' E 014°22'0 0.0
2016-Jun-13 18:33N 67°17' E 014°22'0 0.0
2016-Jun-13 17:33N 67°17' E 014°22'0 0.0
2016-Jun-13 16:33N 67°17' E 014°22'1210.7
2016-Jun-13 15:27N 67°14' E 013°53'8 8.3
2016-Jun-13 14:33N 67°07' E 014°03'1212.4
2016-Jun-13 13:34N 67°17' E 014°22'0 0.0
2016-Jun-13 12:33N 67°17' E 014°22'0 0.0
2016-Jun-13 11:33N 67°17' E 014°22'0 0.0
2016-Jun-13 10:33N 67°17' E 014°22'1312.5
2016-Jun-13 09:32N 67°13' E 013°51'6 5.9
2016-Jun-13 08:33N 67°09' E 014°02'1111.3
2016-Jun-13 07:32N 67°17' E 014°22'0 0.0
2016-Jun-13 06:29N 67°17' E 014°22'0 0.0
2016-Jun-13 05:32N 67°17' E 014°22'1212.4
2016-Jun-13 04:33N 67°07' E 014°03'1212.5
2016-Jun-13 03:33N 67°17' E 014°22'0 0.0
2016-Jun-13 02:29N 67°17' E 014°22'0 0.0
2016-Jun-13 01:29N 67°17' E 014°22'0 0.0
2016-Jun-13 00:29N 67°17' E 014°22'0 0.0
2016-Jun-12 23:31N 67°17' E 014°22'0 0.0
2016-Jun-12 22:31N 67°17' E 014°22'0 0.0
2016-Jun-12 21:28N 67°17' E 014°22'0 0.0
2016-Jun-12 20:31N 67°17' E 014°22'0 0.0
2016-Jun-12 19:34N 67°17' E 014°22'1414.2
2016-Jun-12 18:33N 67°10' E 013°50'1414.3
2016-Jun-12 17:34N 67°17' E 014°22'10 9.8
2016-Jun-12 16:33N 67°25' E 014°06'1110.6
2016-Jun-12 15:33N 67°15' E 013°54'1111.2
2016-Jun-12 14:34N 67°17' E 014°22'2417.2
2016-Jun-12 13:09N 67°40' E 014°43'1627.2
2016-Jun-12 12:33N 67°25' E 014°32'9 8.3
2016-Jun-12 11:31N 67°17' E 014°22'0 0.0
2016-Jun-12 10:31N 67°17' E 014°22'0 0.0
2016-Jun-12 09:31N 67°17' E 014°22'0 0.0
2016-Jun-12 08:31N 67°17' E 014°22'0 0.0
2016-Jun-12 07:31N 67°17' E 014°22'0 0.0
2016-Jun-12 06:31N 67°17' E 014°22'0 0.0
2016-Jun-12 04:33N 67°17' E 014°22'0 0.0
2016-Jun-12 03:33N 67°17' E 014°22'0 0.0
2016-Jun-12 02:33N 67°17' E 014°22'0 0.0
2016-Jun-12 01:33N 67°17' E 014°22'0 0.0
2016-Jun-12 00:33N 67°17' E 014°22'0 0.0
2016-Jun-11 23:33N 67°17' E 014°22'0 0.0
2016-Jun-11 22:33N 67°17' E 014°22'0 0.0
2016-Jun-11 21:33N 67°17' E 014°22'0 0.0
2016-Jun-11 20:33N 67°17' E 014°22'0 0.0
2016-Jun-11 19:33N 67°17' E 014°22'0 0.0
2016-Jun-11 19:00N 67°17' E 014°22'0 0.0
2016-Jun-11 18:30N 67°17' E 014°22'0 0.0
2016-Jun-11 17:33N 67°17' E 014°22'0 0.0
2016-Jun-11 16:33N 67°17' E 014°22'0 0.2
2016-Jun-11 14:34N 67°17' E 014°22'1515.2
2016-Jun-11 13:33N 67°10' E 013°47'1110.9
2016-Jun-11 12:33N 67°14' E 014°13'5 4.8
2016-Jun-11 11:33N 67°17' E 014°22'0 0.0
2016-Jun-11 10:30N 67°17' E 014°22'0 0.0
2016-Jun-11 09:33N 67°17' E 014°22'1312.8
2016-Jun-11 08:32N 67°24' E 013°54'9 9.6
2016-Jun-11 07:34N 67°17' E 014°08'9 9.5
2016-Jun-11 06:33N 67°08' E 013°58'1211.7
2016-Jun-11 05:33N 67°17' E 014°19'1 1.4
2016-Jun-11 04:31N 67°17' E 014°22'0 0.0
2016-Jun-11 03:31N 67°17' E 014°22'0 0.0
2016-Jun-11 02:31N 67°17' E 014°22'0 0.0
2016-Jun-11 01:31N 67°17' E 014°22'0 0.0
2016-Jun-11 00:31N 67°17' E 014°22'0 0.0
2016-Jun-10 23:31N 67°17' E 014°22'0 0.0
2016-Jun-10 22:31N 67°17' E 014°22'0 0.0
2016-Jun-10 21:31N 67°17' E 014°22'0 0.0
2016-Jun-10 20:31N 67°17' E 014°22'0 0.0
2016-Jun-10 19:31N 67°17' E 014°22'0 0.0
2016-Jun-10 18:31N 67°17' E 014°22'0 0.0
2016-Jun-10 17:31N 67°17' E 014°22'0 0.0
2016-Jun-10 16:31N 67°17' E 014°22'1111.1
2016-Jun-10 15:33N 67°20' E 013°56'6 5.7
2016-Jun-10 14:34N 67°25' E 014°03'1110.9
2016-Jun-10 13:33N 67°17' E 014°22'7 6.8
2016-Jun-10 12:34N 67°23' E 014°13'3 2.7
2016-Jun-10 11:33N 67°25' E 014°08'9 9.4
2016-Jun-10 10:33N 67°17' E 014°22'0 0.0
2016-Jun-10 09:33N 67°17' E 014°22'  

Dump ship's entire track history